createdAt,value
2022-09-23T00:00:44.000Z,1011.9
2022-09-23T00:01:56.000Z,1011.9
2022-09-23T00:03:08.000Z,1011.9
2022-09-23T00:04:20.000Z,1011.9
2022-09-23T00:05:32.000Z,1011.9
2022-09-23T00:06:44.000Z,1011.9
2022-09-23T00:07:57.000Z,1011.9
2022-09-23T00:09:09.000Z,1011.8
2022-09-23T00:10:21.000Z,1011.9
2022-09-23T00:11:33.000Z,1011.8
2022-09-23T00:12:45.000Z,1011.8
2022-09-23T00:13:57.000Z,1011.8
2022-09-23T00:15:10.000Z,1011.8
2022-09-23T00:16:22.000Z,1011.8
2022-09-23T00:17:33.000Z,1011.8
2022-09-23T00:18:45.000Z,1011.8
2022-09-23T00:19:57.000Z,1011.8
2022-09-23T00:21:10.000Z,1011.8
2022-09-23T00:22:22.000Z,1011.9
2022-09-23T00:23:34.000Z,1011.8
2022-09-23T00:24:46.000Z,1011.8
2022-09-23T00:25:58.000Z,1011.8
2022-09-23T00:27:10.000Z,1011.7
2022-09-23T00:28:23.000Z,1011.7
2022-09-23T00:29:35.000Z,1011.7
2022-09-23T00:30:47.000Z,1011.7
2022-09-23T00:31:59.000Z,1011.7
2022-09-23T00:33:10.000Z,1011.6
2022-09-23T00:34:23.000Z,1011.7
2022-09-23T00:35:35.000Z,1011.7
2022-09-23T00:36:47.000Z,1011.7
2022-09-23T00:37:59.000Z,1011.6
2022-09-23T00:39:11.000Z,1011.7
2022-09-23T00:40:24.000Z,1011.6
2022-09-23T00:41:36.000Z,1011.6
2022-09-23T00:42:48.000Z,1011.6
2022-09-23T00:44:00.000Z,1011.6
2022-09-23T00:45:12.000Z,1011.6
2022-09-23T00:46:24.000Z,1011.5
2022-09-23T00:47:37.000Z,1011.7
2022-09-23T00:48:48.000Z,1011.6
2022-09-23T00:50:00.000Z,1011.6
2022-09-23T00:51:12.000Z,1011.6
2022-09-23T00:52:24.000Z,1011.6
2022-09-23T00:53:37.000Z,1011.6
2022-09-23T00:54:49.000Z,1011.6
2022-09-23T00:56:01.000Z,1011.6
2022-09-23T00:57:13.000Z,1011.6
2022-09-23T00:58:25.000Z,1011.6
2022-09-23T00:59:37.000Z,1011.6
2022-09-23T01:00:50.000Z,1011.6
2022-09-23T01:02:02.000Z,1011.6
2022-09-23T01:03:14.000Z,1011.5
2022-09-23T01:04:26.000Z,1011.5
2022-09-23T01:05:37.000Z,1011.5
2022-09-23T01:06:50.000Z,1011.5
2022-09-23T01:08:02.000Z,1011.5
2022-09-23T01:09:14.000Z,1011.5
2022-09-23T01:10:26.000Z,1011.5
2022-09-23T01:11:38.000Z,1011.5
2022-09-23T01:12:51.000Z,1011.5
2022-09-23T01:14:03.000Z,1011.5
2022-09-23T01:15:15.000Z,1011.5
2022-09-23T01:16:27.000Z,1011.4
2022-09-23T01:17:39.000Z,1011.4
2022-09-23T01:18:51.000Z,1011.4
2022-09-23T01:20:04.000Z,1011.3
2022-09-23T01:21:15.000Z,1011.4
2022-09-23T01:22:27.000Z,1011.4
2022-09-23T01:23:39.000Z,1011.4
2022-09-23T01:24:51.000Z,1011.4
2022-09-23T01:26:04.000Z,1011.4
2022-09-23T01:27:16.000Z,1011.3
2022-09-23T01:28:28.000Z,1011.4
2022-09-23T01:29:40.000Z,1011.4
2022-09-23T01:30:52.000Z,1011.4
2022-09-23T01:32:04.000Z,1011.3
2022-09-23T01:33:17.000Z,1011.2
2022-09-23T01:34:29.000Z,1011.3
2022-09-23T01:35:41.000Z,1011.3
2022-09-23T01:36:52.000Z,1011.2
2022-09-23T01:38:04.000Z,1011.2
2022-09-23T01:39:17.000Z,1011.2
2022-09-23T01:40:29.000Z,1011.2
2022-09-23T01:41:41.000Z,1011.2
2022-09-23T01:42:53.000Z,1011.2
2022-09-23T01:44:05.000Z,1011.2
2022-09-23T01:45:18.000Z,1011.2
2022-09-23T01:46:30.000Z,1011.2
2022-09-23T01:47:42.000Z,1011.2
2022-09-23T01:48:54.000Z,1011.2
2022-09-23T01:50:06.000Z,1011.2
2022-09-23T01:52:30.000Z,1011.2
2022-09-23T01:53:42.000Z,1011.2
2022-09-23T01:54:54.000Z,1011.2
2022-09-23T01:56:06.000Z,1011.2
2022-09-23T01:57:06.860Z,1011.2
2022-09-23T01:57:18.000Z,1011.2
2022-09-23T01:58:30.000Z,1011.2
2022-09-23T01:59:42.000Z,1011.1
2022-09-23T02:00:54.000Z,1011.1
2022-09-23T02:02:06.000Z,1011.1
2022-09-23T02:03:18.000Z,1011.1
2022-09-23T02:04:30.000Z,1011.1
2022-09-23T02:05:43.000Z,1011.1
2022-09-23T02:06:55.000Z,1011.1
2022-09-23T02:08:07.000Z,1011.1
2022-09-23T02:09:19.000Z,1011.1
2022-09-23T02:10:31.000Z,1011
2022-09-23T02:11:44.000Z,1011
2022-09-23T02:12:56.000Z,1011
2022-09-23T02:14:07.000Z,1011
2022-09-23T02:15:19.000Z,1011
2022-09-23T02:16:31.000Z,1011
2022-09-23T02:17:44.000Z,1011
2022-09-23T02:18:56.000Z,1011
2022-09-23T02:20:08.000Z,1011
2022-09-23T02:21:20.000Z,1011
2022-09-23T02:22:32.000Z,1010.9
2022-09-23T02:23:44.000Z,1010.9
2022-09-23T02:24:57.000Z,1010.9
2022-09-23T02:26:09.000Z,1010.9
2022-09-23T02:27:21.000Z,1010.9
2022-09-23T02:28:33.000Z,1010.9
2022-09-23T02:29:44.000Z,1010.8
2022-09-23T02:30:57.000Z,1010.8
2022-09-23T02:32:09.000Z,1010.8
2022-09-23T02:33:21.000Z,1010.9
2022-09-23T02:34:33.000Z,1010.8
2022-09-23T02:35:45.000Z,1010.9
2022-09-23T02:36:57.000Z,1010.8
2022-09-23T02:38:10.000Z,1010.8
2022-09-23T02:39:22.000Z,1010.7
2022-09-23T02:40:34.000Z,1010.8
2022-09-23T02:41:46.000Z,1010.7
2022-09-23T02:42:58.000Z,1010.7
2022-09-23T02:44:11.000Z,1010.8
2022-09-23T02:45:22.000Z,1010.8
2022-09-23T02:46:34.000Z,1010.8
2022-09-23T02:47:46.000Z,1010.7
2022-09-23T02:48:58.000Z,1010.7
2022-09-23T02:50:11.000Z,1010.7
2022-09-23T02:51:23.000Z,1010.7
2022-09-23T02:52:35.000Z,1010.8
2022-09-23T02:53:47.000Z,1010.7
2022-09-23T02:54:59.000Z,1010.7
2022-09-23T02:56:11.000Z,1010.7
2022-09-23T02:57:24.000Z,1010.7
2022-09-23T02:58:36.000Z,1010.7
2022-09-23T02:59:48.000Z,1010.7
2022-09-23T03:01:00.000Z,1010.7
2022-09-23T03:02:12.000Z,1010.7
2022-09-23T03:03:25.000Z,1010.7
2022-09-23T03:04:36.000Z,1010.7
2022-09-23T03:05:48.000Z,1010.7
2022-09-23T03:07:00.000Z,1010.7
2022-09-23T03:08:12.000Z,1010.7
2022-09-23T03:09:24.000Z,1010.6
2022-09-23T03:10:37.000Z,1010.7
2022-09-23T03:11:49.000Z,1010.6
2022-09-23T03:13:01.000Z,1010.6
2022-09-23T03:14:13.000Z,1010.7
2022-09-23T03:15:25.000Z,1010.6
2022-09-23T03:16:38.000Z,1010.7
2022-09-23T03:17:50.000Z,1010.7
2022-09-23T03:19:02.000Z,1010.7
2022-09-23T03:20:13.000Z,1010.7
2022-09-23T03:21:25.000Z,1010.6
2022-09-23T03:22:38.000Z,1010.6
2022-09-23T03:23:50.000Z,1010.6
2022-09-23T03:25:02.000Z,1010.6
2022-09-23T03:26:14.000Z,1010.6
2022-09-23T03:27:26.000Z,1010.6
2022-09-23T03:28:38.000Z,1010.6
2022-09-23T03:29:51.000Z,1010.5
2022-09-23T03:31:03.000Z,1010.6
2022-09-23T03:32:15.000Z,1010.5
2022-09-23T03:33:27.000Z,1010.5
2022-09-23T03:34:39.000Z,1010.5
2022-09-23T03:35:51.000Z,1010.6
2022-09-23T03:37:03.000Z,1010.5
2022-09-23T03:38:15.000Z,1010.5
2022-09-23T03:39:27.000Z,1010.5
2022-09-23T03:40:39.000Z,1010.4
2022-09-23T03:41:51.000Z,1010.4
2022-09-23T03:43:04.000Z,1010.4
2022-09-23T03:44:16.000Z,1010.5
2022-09-23T03:45:28.000Z,1010.4
2022-09-23T03:46:40.000Z,1010.4
2022-09-23T03:47:52.000Z,1010.4
2022-09-23T03:49:05.000Z,1010.4
2022-09-23T03:50:17.000Z,1010.4
2022-09-23T03:51:28.000Z,1010.4
2022-09-23T03:52:40.000Z,1010.3
2022-09-23T03:53:52.000Z,1010.3
2022-09-23T03:55:05.000Z,1010.3
2022-09-23T03:56:17.000Z,1010.3
2022-09-23T03:57:29.000Z,1010.3
2022-09-23T03:58:41.000Z,1010.3
2022-09-23T03:59:53.000Z,1010.3
2022-09-23T04:01:05.000Z,1010.3
2022-09-23T04:02:18.000Z,1010.2
2022-09-23T04:03:30.000Z,1010.2
2022-09-23T04:04:42.000Z,1010.2
2022-09-23T04:05:54.000Z,1010.2
2022-09-23T04:07:05.000Z,1010.2
2022-09-23T04:08:18.000Z,1010.2
2022-09-23T04:09:30.000Z,1010.1
2022-09-23T04:10:42.000Z,1010.2
2022-09-23T04:11:54.000Z,1010.1
2022-09-23T04:13:06.000Z,1010.1
2022-09-23T04:14:19.000Z,1010.1
2022-09-23T04:15:31.000Z,1010.1
2022-09-23T04:16:43.000Z,1010.1
2022-09-23T04:17:55.000Z,1010.1
2022-09-23T04:19:07.000Z,1010.1
2022-09-23T04:20:19.000Z,1010
2022-09-23T04:21:32.000Z,1010.1
2022-09-23T04:22:43.000Z,1010.1
2022-09-23T04:23:55.000Z,1010.1
2022-09-23T04:25:07.000Z,1010.1
2022-09-23T04:26:19.000Z,1010.1
2022-09-23T04:27:32.000Z,1010
2022-09-23T04:28:44.000Z,1010.1
2022-09-23T04:29:56.000Z,1010.1
2022-09-23T04:31:08.000Z,1010
2022-09-23T04:32:20.000Z,1010
2022-09-23T04:33:32.000Z,1010.1
2022-09-23T04:34:45.000Z,1010
2022-09-23T04:35:57.000Z,1010
2022-09-23T04:37:09.000Z,1010
2022-09-23T04:38:20.000Z,1010
2022-09-23T04:39:32.000Z,1010
2022-09-23T04:40:45.000Z,1010
2022-09-23T04:41:57.000Z,1010.1
2022-09-23T04:43:09.000Z,1010.1
2022-09-23T04:44:21.000Z,1010.1
2022-09-23T04:45:33.000Z,1010
2022-09-23T04:46:46.000Z,1010.1
2022-09-23T04:47:58.000Z,1010
2022-09-23T04:49:10.000Z,1010.1
2022-09-23T04:50:22.000Z,1010
2022-09-23T04:51:34.000Z,1010
2022-09-23T04:52:46.000Z,1010
2022-09-23T04:53:58.000Z,1009.9
2022-09-23T04:55:10.000Z,1010
2022-09-23T04:56:22.000Z,1010
2022-09-23T04:57:34.000Z,1010
2022-09-23T04:58:46.000Z,1010.1
2022-09-23T04:59:59.000Z,1010
2022-09-23T05:01:11.000Z,1010
2022-09-23T05:02:23.000Z,1010
2022-09-23T05:03:35.000Z,1010
2022-09-23T05:04:47.000Z,1010.1
2022-09-23T05:05:59.000Z,1010.1
2022-09-23T05:07:12.000Z,1010
2022-09-23T05:08:24.000Z,1010
2022-09-23T05:09:35.000Z,1010
2022-09-23T05:10:47.000Z,1010
2022-09-23T05:11:59.000Z,1010
2022-09-23T05:13:12.000Z,1010
2022-09-23T05:14:24.000Z,1010
2022-09-23T05:15:36.000Z,1010
2022-09-23T05:16:48.000Z,1010
2022-09-23T05:18:00.000Z,1010
2022-09-23T05:20:25.000Z,1010
2022-09-23T05:21:37.000Z,1010
2022-09-23T05:22:49.000Z,1010
2022-09-23T05:24:01.000Z,1010.1
2022-09-23T05:25:01.068Z,1010
2022-09-23T05:25:12.000Z,1010.1
2022-09-23T05:26:25.000Z,1010.1
2022-09-23T05:27:37.000Z,1010.1
2022-09-23T05:28:49.000Z,1010
2022-09-23T05:30:01.000Z,1010
2022-09-23T05:31:13.000Z,1010
2022-09-23T05:32:26.000Z,1010
2022-09-23T05:33:38.000Z,1010
2022-09-23T05:34:50.000Z,1010
2022-09-23T05:36:02.000Z,1010
2022-09-23T05:37:14.000Z,1010
2022-09-23T05:38:26.000Z,1010
2022-09-23T05:39:39.000Z,1010
2022-09-23T05:40:50.000Z,1009.9
2022-09-23T05:42:02.000Z,1009.9
2022-09-23T05:43:14.000Z,1009.9
2022-09-23T05:44:26.000Z,1009.9
2022-09-23T05:45:39.000Z,1009.9
2022-09-23T05:46:51.000Z,1009.9
2022-09-23T05:48:03.000Z,1009.9
2022-09-23T05:50:27.000Z,1009.9
2022-09-23T05:51:40.000Z,1009.9
2022-09-23T05:52:52.000Z,1009.9
2022-09-23T05:54:04.000Z,1010
2022-09-23T05:55:03.725Z,1009.9
2022-09-23T05:55:16.000Z,1010
2022-09-23T05:56:27.000Z,1010
2022-09-23T05:57:39.000Z,1010
2022-09-23T05:58:52.000Z,1009.9
2022-09-23T06:00:03.000Z,1009.9
2022-09-23T06:01:15.000Z,1009.9
2022-09-23T06:02:27.000Z,1010
2022-09-23T06:03:39.000Z,1010
2022-09-23T06:04:52.000Z,1010
2022-09-23T06:06:04.000Z,1009.9
2022-09-23T06:07:16.000Z,1010
2022-09-23T06:08:28.000Z,1010
2022-09-23T06:09:40.000Z,1010
2022-09-23T06:10:52.000Z,1009.9
2022-09-23T06:12:05.000Z,1009.9
2022-09-23T06:13:17.000Z,1010.1
2022-09-23T06:14:29.000Z,1009.9
2022-09-23T06:15:40.000Z,1009.9
2022-09-23T06:16:52.000Z,1009.9
2022-09-23T06:18:05.000Z,1009.9
2022-09-23T06:19:17.000Z,1009.9
2022-09-23T06:20:29.000Z,1009.9
2022-09-23T06:21:41.000Z,1009.9
2022-09-23T06:22:53.000Z,1009.9
2022-09-23T06:24:06.000Z,1009.9
2022-09-23T06:25:18.000Z,1009.9
2022-09-23T06:26:30.000Z,1009.9
2022-09-23T06:27:42.000Z,1009.9
2022-09-23T06:28:54.000Z,1009.9
2022-09-23T06:30:06.000Z,1009.9
2022-09-23T06:31:18.000Z,1009.9
2022-09-23T06:32:30.000Z,1009.9
2022-09-23T06:33:42.000Z,1009.9
2022-09-23T06:34:54.000Z,1010
2022-09-23T06:36:06.000Z,1010
2022-09-23T06:37:19.000Z,1010
2022-09-23T06:38:31.000Z,1009.9
2022-09-23T06:39:43.000Z,1009.9
2022-09-23T06:40:55.000Z,1010
2022-09-23T06:42:07.000Z,1010
2022-09-23T06:43:19.000Z,1010
2022-09-23T06:44:32.000Z,1009.9
2022-09-23T06:45:44.000Z,1009.9
2022-09-23T06:46:56.000Z,1009.9
2022-09-23T06:48:07.000Z,1009.9
2022-09-23T06:49:19.000Z,1009.9
2022-09-23T06:50:32.000Z,1009.9
2022-09-23T06:51:44.000Z,1009.9
2022-09-23T06:52:56.000Z,1009.9
2022-09-23T06:54:08.000Z,1009.9
2022-09-23T06:55:20.000Z,1009.9
2022-09-23T06:56:33.000Z,1009.9
2022-09-23T06:57:45.000Z,1009.9
2022-09-23T06:58:57.000Z,1009.9
2022-09-23T07:00:09.000Z,1009.9
2022-09-23T07:01:21.000Z,1009.9
2022-09-23T07:02:33.000Z,1009.9
2022-09-23T07:03:45.000Z,1009.9
2022-09-23T07:04:57.000Z,1009.9
2022-09-23T07:06:09.000Z,1009.9
2022-09-23T07:07:21.000Z,1009.9
2022-09-23T07:08:33.000Z,1009.9
2022-09-23T07:09:46.000Z,1009.9
2022-09-23T07:10:58.000Z,1009.9
2022-09-23T07:12:10.000Z,1009.9
2022-09-23T07:13:22.000Z,1009.9
2022-09-23T07:14:34.000Z,1009.9
2022-09-23T07:15:46.000Z,1009.9
2022-09-23T07:16:59.000Z,1010
2022-09-23T07:18:11.000Z,1009.9
2022-09-23T07:19:22.000Z,1010
2022-09-23T07:20:34.000Z,1010
2022-09-23T07:21:46.000Z,1010
2022-09-23T07:22:59.000Z,1009.9
2022-09-23T07:24:11.000Z,1009.9
2022-09-23T07:25:23.000Z,1009.9
2022-09-23T07:26:35.000Z,1010
2022-09-23T07:27:47.000Z,1010
2022-09-23T07:29:00.000Z,1010
2022-09-23T07:31:24.000Z,1009.9
2022-09-23T07:32:36.000Z,1009.9
2022-09-23T07:33:48.000Z,1010
2022-09-23T07:34:59.000Z,1009.9
2022-09-23T07:36:00.361Z,1010
2022-09-23T07:36:12.000Z,1010
2022-09-23T07:37:24.000Z,1009.9
2022-09-23T07:38:36.000Z,1009.9
2022-09-23T07:39:48.000Z,1009.9
2022-09-23T07:41:00.000Z,1009.9
2022-09-23T07:42:13.000Z,1009.9
2022-09-23T07:43:25.000Z,1009.9
2022-09-23T07:44:37.000Z,1010
2022-09-23T07:45:49.000Z,1009.9
2022-09-23T07:47:01.000Z,1009.9
2022-09-23T07:48:13.000Z,1009.9
2022-09-23T07:49:26.000Z,1009.9
2022-09-23T07:50:38.000Z,1009.9
2022-09-23T07:51:49.000Z,1009.9
2022-09-23T07:53:01.000Z,1009.9
2022-09-23T07:54:13.000Z,1009.9
2022-09-23T07:55:26.000Z,1009.9
2022-09-23T07:56:38.000Z,1009.9
2022-09-23T07:57:50.000Z,1009.9
2022-09-23T07:59:02.000Z,1009.9
2022-09-23T08:00:14.000Z,1009.9
2022-09-23T08:01:27.000Z,1009.9
2022-09-23T08:02:39.000Z,1010
2022-09-23T08:03:51.000Z,1010
2022-09-23T08:05:03.000Z,1010
2022-09-23T08:06:15.000Z,1010
2022-09-23T08:07:26.000Z,1010
2022-09-23T08:08:39.000Z,1009.9
2022-09-23T08:09:51.000Z,1009.9
2022-09-23T08:11:03.000Z,1009.9
2022-09-23T08:12:15.000Z,1009.9
2022-09-23T08:13:27.000Z,1009.9
2022-09-23T08:14:40.000Z,1009.9
2022-09-23T08:15:52.000Z,1009.9
2022-09-23T08:17:04.000Z,1009.8
2022-09-23T08:18:16.000Z,1009.9
2022-09-23T08:19:28.000Z,1009.9
2022-09-23T08:20:40.000Z,1009.8
2022-09-23T08:21:53.000Z,1009.8
2022-09-23T08:23:04.000Z,1009.7
2022-09-23T08:24:16.000Z,1009.8
2022-09-23T08:25:28.000Z,1009.8
2022-09-23T08:26:40.000Z,1009.7
2022-09-23T08:27:53.000Z,1009.8
2022-09-23T08:29:05.000Z,1009.7
2022-09-23T08:30:17.000Z,1009.7
2022-09-23T08:31:29.000Z,1009.7
2022-09-23T08:32:41.000Z,1009.8
2022-09-23T08:33:54.000Z,1009.7
2022-09-23T08:35:06.000Z,1009.7
2022-09-23T08:36:18.000Z,1009.7
2022-09-23T08:37:30.000Z,1009.7
2022-09-23T08:38:41.000Z,1009.7
2022-09-23T08:39:53.000Z,1009.7
2022-09-23T08:41:06.000Z,1009.7
2022-09-23T08:42:18.000Z,1009.7
2022-09-23T08:43:30.000Z,1009.7
2022-09-23T08:44:42.000Z,1009.6
2022-09-23T08:45:54.000Z,1009.6
2022-09-23T08:47:07.000Z,1009.7
2022-09-23T08:48:19.000Z,1009.7
2022-09-23T08:49:31.000Z,1009.7
2022-09-23T08:50:43.000Z,1009.6
2022-09-23T08:51:55.000Z,1009.6
2022-09-23T08:53:07.000Z,1009.6
2022-09-23T08:54:19.000Z,1009.6
2022-09-23T08:55:31.000Z,1009.5
2022-09-23T08:56:43.000Z,1009.5
2022-09-23T08:57:55.000Z,1009.5
2022-09-23T08:59:07.000Z,1009.4
2022-09-23T09:00:20.000Z,1009.5
2022-09-23T09:02:44.000Z,1009.4
2022-09-23T09:03:56.000Z,1009.5
2022-09-23T09:05:08.000Z,1009.5
2022-09-23T09:06:21.000Z,1009.5
2022-09-23T09:07:20.000Z,1009.5
2022-09-23T09:07:33.000Z,1009.4
2022-09-23T09:08:45.000Z,1009.4
2022-09-23T09:09:56.000Z,1009.4
2022-09-23T09:11:08.000Z,1009.5
2022-09-23T09:12:20.000Z,1009.4
2022-09-23T09:13:33.000Z,1009.5
2022-09-23T09:14:45.000Z,1009.4
2022-09-23T09:17:09.000Z,1009.3
2022-09-23T09:18:21.000Z,1009.4
2022-09-23T09:19:34.000Z,1009.3
2022-09-23T09:20:46.000Z,1009.4
2022-09-23T09:21:45.000Z,1009.3
2022-09-23T09:21:58.000Z,1009.4
2022-09-23T09:23:10.000Z,1009.3
2022-09-23T09:24:22.000Z,1009.3
2022-09-23T09:25:33.000Z,1009.3
2022-09-23T09:26:46.000Z,1009.3
2022-09-23T09:27:58.000Z,1009.3
2022-09-23T09:29:10.000Z,1009.3
2022-09-23T09:30:22.000Z,1009.3
2022-09-23T09:31:34.000Z,1009.2
2022-09-23T09:32:47.000Z,1009.3
2022-09-23T09:33:59.000Z,1009.3
2022-09-23T09:35:11.000Z,1009.3
2022-09-23T09:36:23.000Z,1009.2
2022-09-23T09:37:35.000Z,1009.2
2022-09-23T09:38:48.000Z,1009.3
2022-09-23T09:40:00.000Z,1009.3
2022-09-23T09:41:12.000Z,1009.2
2022-09-23T09:42:23.000Z,1009.2
2022-09-23T09:43:35.000Z,1009.2
2022-09-23T09:44:47.000Z,1009.2
2022-09-23T09:46:00.000Z,1009.2
2022-09-23T09:47:12.000Z,1009.1
2022-09-23T09:48:24.000Z,1009.1
2022-09-23T09:49:36.000Z,1009.1
2022-09-23T09:50:48.000Z,1009.1
2022-09-23T09:52:01.000Z,1009.1
2022-09-23T09:53:13.000Z,1009.1
2022-09-23T09:54:25.000Z,1009.2
2022-09-23T09:55:37.000Z,1009.1
2022-09-23T09:56:49.000Z,1009.1
2022-09-23T09:58:01.000Z,1009.1
2022-09-23T09:59:13.000Z,1009.1
2022-09-23T10:00:25.000Z,1009.1
2022-09-23T10:01:36.000Z,1009.2
2022-09-23T10:02:48.000Z,1009
2022-09-23T10:04:00.000Z,1009.1
2022-09-23T10:05:13.000Z,1009.1
2022-09-23T10:06:25.000Z,1009
2022-09-23T10:07:37.000Z,1009
2022-09-23T10:08:49.000Z,1009
2022-09-23T10:10:01.000Z,1009
2022-09-23T10:11:14.000Z,1009
2022-09-23T10:12:26.000Z,1009
2022-09-23T10:13:38.000Z,1009
2022-09-23T10:14:50.000Z,1009
2022-09-23T10:16:02.000Z,1008.9
2022-09-23T10:17:14.000Z,1008.9
2022-09-23T10:18:26.000Z,1009
2022-09-23T10:19:38.000Z,1008.9
2022-09-23T10:20:50.000Z,1009
2022-09-23T10:22:02.000Z,1008.9
2022-09-23T10:23:14.000Z,1009
2022-09-23T10:24:27.000Z,1009
2022-09-23T10:25:39.000Z,1008.9
2022-09-23T10:26:51.000Z,1008.9
2022-09-23T10:28:03.000Z,1008.9
2022-09-23T10:29:15.000Z,1008.9
2022-09-23T10:30:28.000Z,1008.8
2022-09-23T10:31:40.000Z,1008.8
2022-09-23T10:32:51.000Z,1008.8
2022-09-23T10:34:03.000Z,1008.8
2022-09-23T10:35:15.000Z,1008.8
2022-09-23T10:36:27.000Z,1008.8
2022-09-23T10:37:40.000Z,1008.8
2022-09-23T10:38:52.000Z,1008.7
2022-09-23T10:40:04.000Z,1008.8
2022-09-23T10:41:16.000Z,1008.8
2022-09-23T10:42:28.000Z,1008.8
2022-09-23T10:43:41.000Z,1008.8
2022-09-23T10:44:53.000Z,1008.7
2022-09-23T10:46:05.000Z,1008.7
2022-09-23T10:47:17.000Z,1008.7
2022-09-23T10:48:28.000Z,1008.6
2022-09-23T10:49:41.000Z,1008.6
2022-09-23T10:50:53.000Z,1008.7
2022-09-23T10:52:05.000Z,1008.6
2022-09-23T10:53:17.000Z,1008.5
2022-09-23T10:54:29.000Z,1008.5
2022-09-23T10:55:41.000Z,1008.5
2022-09-23T10:56:54.000Z,1008.5
2022-09-23T10:58:06.000Z,1008.5
2022-09-23T10:59:18.000Z,1008.5
2022-09-23T11:00:30.000Z,1008.4
2022-09-23T11:01:42.000Z,1008.4
2022-09-23T11:02:55.000Z,1008.4
2022-09-23T11:04:06.000Z,1008.4
2022-09-23T11:05:18.000Z,1008.4
2022-09-23T11:06:30.000Z,1008.4
2022-09-23T11:07:42.000Z,1008.4
2022-09-23T11:08:55.000Z,1008.4
2022-09-23T11:10:07.000Z,1008.4
2022-09-23T11:11:19.000Z,1008.4
2022-09-23T11:12:31.000Z,1008.4
2022-09-23T11:13:43.000Z,1008.4
2022-09-23T11:14:55.000Z,1008.3
2022-09-23T11:16:08.000Z,1008.3
2022-09-23T11:17:20.000Z,1008.3
2022-09-23T11:18:32.000Z,1008.3
2022-09-23T11:19:43.000Z,1008.3
2022-09-23T11:20:55.000Z,1008.3
2022-09-23T11:22:08.000Z,1008.2
2022-09-23T11:23:20.000Z,1008.3
2022-09-23T11:24:32.000Z,1008.2
2022-09-23T11:25:44.000Z,1008.2
2022-09-23T11:26:56.000Z,1008.2
2022-09-23T11:28:09.000Z,1008.2
2022-09-23T11:29:21.000Z,1008.2
2022-09-23T11:30:33.000Z,1008.2
2022-09-23T11:31:45.000Z,1008.2
2022-09-23T11:32:57.000Z,1008.2
2022-09-23T11:34:09.000Z,1008.1
2022-09-23T11:35:21.000Z,1008.1
2022-09-23T11:36:33.000Z,1008.1
2022-09-23T11:37:45.000Z,1008.1
2022-09-23T11:38:57.000Z,1008.1
2022-09-23T11:40:09.000Z,1008.1
2022-09-23T11:41:22.000Z,1008
2022-09-23T11:42:34.000Z,1008
2022-09-23T11:43:46.000Z,1008
2022-09-23T11:44:58.000Z,1008
2022-09-23T11:46:10.000Z,1008
2022-09-23T11:47:22.000Z,1008
2022-09-23T11:48:35.000Z,1007.9
2022-09-23T11:49:47.000Z,1007.9
2022-09-23T11:50:58.000Z,1007.9
2022-09-23T11:52:10.000Z,1007.9
2022-09-23T11:53:22.000Z,1007.9
2022-09-23T11:54:35.000Z,1007.9
2022-09-23T11:55:47.000Z,1007.9
2022-09-23T11:56:59.000Z,1007.8
2022-09-23T11:58:11.000Z,1007.9
2022-09-23T11:59:23.000Z,1007.9
2022-09-23T12:00:36.000Z,1007.9
2022-09-23T12:01:48.000Z,1007.9
2022-09-23T12:03:00.000Z,1007.9
2022-09-23T12:04:12.000Z,1007.9
2022-09-23T12:05:24.000Z,1007.7
2022-09-23T12:06:35.000Z,1007.8
2022-09-23T12:07:48.000Z,1007.7
2022-09-23T12:09:00.000Z,1007.8
2022-09-23T12:10:12.000Z,1007.7
2022-09-23T12:11:24.000Z,1007.7
2022-09-23T12:12:36.000Z,1007.7
2022-09-23T12:13:49.000Z,1007.7
2022-09-23T12:15:01.000Z,1007.7
2022-09-23T12:16:13.000Z,1007.7
2022-09-23T12:17:25.000Z,1007.6
2022-09-23T12:18:37.000Z,1007.7
2022-09-23T12:19:50.000Z,1007.6
2022-09-23T12:21:02.000Z,1007.6
2022-09-23T12:22:13.000Z,1007.6
2022-09-23T12:23:25.000Z,1007.5
2022-09-23T12:24:37.000Z,1007.5
2022-09-23T12:25:49.000Z,1007.5
2022-09-23T12:27:02.000Z,1007.5
2022-09-23T12:28:14.000Z,1007.5
2022-09-23T12:29:26.000Z,1007.6
2022-09-23T12:30:38.000Z,1007.5
2022-09-23T12:31:50.000Z,1007.5
2022-09-23T12:33:03.000Z,1007.6
2022-09-23T12:34:15.000Z,1007.5
2022-09-23T12:35:27.000Z,1007.5
2022-09-23T12:36:39.000Z,1007.5
2022-09-23T12:37:50.000Z,1007.5
2022-09-23T12:39:03.000Z,1007.5
2022-09-23T12:40:15.000Z,1007.5
2022-09-23T12:41:27.000Z,1007.4
2022-09-23T12:42:39.000Z,1007.4
2022-09-23T12:43:51.000Z,1007.4
2022-09-23T12:45:03.000Z,1007.4
2022-09-23T12:46:16.000Z,1007.4
2022-09-23T12:47:28.000Z,1007.4
2022-09-23T12:48:40.000Z,1007.3
2022-09-23T12:49:52.000Z,1007.3
2022-09-23T12:51:04.000Z,1007.3
2022-09-23T12:52:17.000Z,1007.3
2022-09-23T12:53:28.000Z,1007.2
2022-09-23T12:54:40.000Z,1007.3
2022-09-23T12:55:52.000Z,1007.3
2022-09-23T12:57:04.000Z,1007.2
2022-09-23T12:58:17.000Z,1007.2
2022-09-23T12:59:29.000Z,1007.2
2022-09-23T13:00:41.000Z,1007.2
2022-09-23T13:01:53.000Z,1007.1
2022-09-23T13:03:05.000Z,1007.2
2022-09-23T13:04:17.000Z,1007.2
2022-09-23T13:05:30.000Z,1007.1
2022-09-23T13:06:42.000Z,1007.1
2022-09-23T13:07:54.000Z,1007.1
2022-09-23T13:09:05.000Z,1007.1
2022-09-23T13:10:17.000Z,1007.1
2022-09-23T13:11:30.000Z,1007.1
2022-09-23T13:12:42.000Z,1007.1
2022-09-23T13:13:54.000Z,1007
2022-09-23T13:15:06.000Z,1006.9
2022-09-23T13:16:18.000Z,1007
2022-09-23T13:17:31.000Z,1006.9
2022-09-23T13:18:43.000Z,1006.9
2022-09-23T13:19:55.000Z,1007
2022-09-23T13:22:19.000Z,1006.9
2022-09-23T13:23:31.000Z,1006.8
2022-09-23T13:24:43.000Z,1006.9
2022-09-23T13:25:55.000Z,1006.8
2022-09-23T13:26:55.000Z,1006.9
2022-09-23T13:27:07.000Z,1006.8
2022-09-23T13:28:19.000Z,1006.8
2022-09-23T13:30:44.000Z,1006.7
2022-09-23T13:31:56.000Z,1006.7
2022-09-23T13:33:08.000Z,1006.7
2022-09-23T13:34:20.000Z,1006.7
2022-09-23T13:35:20.000Z,1006.7
2022-09-23T13:35:32.000Z,1006.7
2022-09-23T13:36:44.000Z,1006.7
2022-09-23T13:37:57.000Z,1006.7
2022-09-23T13:39:09.000Z,1006.6
2022-09-23T13:40:20.000Z,1006.7
2022-09-23T13:41:32.000Z,1006.6
2022-09-23T13:42:44.000Z,1006.6
2022-09-23T13:43:57.000Z,1006.6
2022-09-23T13:45:09.000Z,1006.6
2022-09-23T13:46:21.000Z,1006.6
2022-09-23T13:47:33.000Z,1006.6
2022-09-23T13:48:45.000Z,1006.5
2022-09-23T13:49:58.000Z,1006.5
2022-09-23T13:51:10.000Z,1006.6
2022-09-23T13:52:22.000Z,1006.6
2022-09-23T13:53:34.000Z,1006.6
2022-09-23T13:54:46.000Z,1006.5
2022-09-23T13:55:57.000Z,1006.5
2022-09-23T13:57:10.000Z,1006.5
2022-09-23T13:58:22.000Z,1006.5
2022-09-23T13:59:34.000Z,1006.5
2022-09-23T14:00:46.000Z,1006.5
2022-09-23T14:01:58.000Z,1006.5
2022-09-23T14:03:10.000Z,1006.5
2022-09-23T14:04:22.000Z,1006.5
2022-09-23T14:05:34.000Z,1006.4
2022-09-23T14:06:46.000Z,1006.4
2022-09-23T14:07:58.000Z,1006.5
2022-09-23T14:09:11.000Z,1006.4
2022-09-23T14:10:23.000Z,1006.4
2022-09-23T14:11:35.000Z,1006.4
2022-09-23T14:12:47.000Z,1006.4
2022-09-23T14:13:59.000Z,1006.3
2022-09-23T14:15:11.000Z,1006.3
2022-09-23T14:16:24.000Z,1006.3
2022-09-23T14:17:36.000Z,1006.3
2022-09-23T14:18:47.000Z,1006.3
2022-09-23T14:19:59.000Z,1006.3
2022-09-23T14:21:11.000Z,1006.2
2022-09-23T14:22:24.000Z,1006.3
2022-09-23T14:23:36.000Z,1006.2
2022-09-23T14:24:48.000Z,1006.2
2022-09-23T14:26:00.000Z,1006.2
2022-09-23T14:27:12.000Z,1006.2
2022-09-23T14:28:25.000Z,1006.2
2022-09-23T14:29:37.000Z,1006.2
2022-09-23T14:30:49.000Z,1006.1
2022-09-23T14:32:01.000Z,1006.1
2022-09-23T14:33:13.000Z,1006.2
2022-09-23T14:34:24.000Z,1006.1
2022-09-23T14:35:37.000Z,1006.1
2022-09-23T14:36:49.000Z,1006.1
2022-09-23T14:38:01.000Z,1006.1
2022-09-23T14:39:13.000Z,1006.1
2022-09-23T14:40:25.000Z,1006.1
2022-09-23T14:41:38.000Z,1006.1
2022-09-23T14:42:50.000Z,1006.1
2022-09-23T14:44:02.000Z,1006.1
2022-09-23T14:45:14.000Z,1006
2022-09-23T14:46:26.000Z,1006
2022-09-23T14:47:39.000Z,1006
2022-09-23T14:48:51.000Z,1006
2022-09-23T14:50:02.000Z,1006
2022-09-23T14:51:14.000Z,1006
2022-09-23T14:52:26.000Z,1005.9
2022-09-23T14:54:51.000Z,1005.9
2022-09-23T14:56:03.000Z,1006
2022-09-23T14:57:15.000Z,1006
2022-09-23T14:58:27.000Z,1005.9
2022-09-23T14:59:27.413Z,1006
2022-09-23T14:59:39.000Z,1005.9
2022-09-23T15:00:52.000Z,1005.9
2022-09-23T15:02:04.000Z,1005.9
2022-09-23T15:03:16.000Z,1005.9
2022-09-23T15:04:28.000Z,1005.8
2022-09-23T15:05:39.000Z,1005.9
2022-09-23T15:06:52.000Z,1005.9
2022-09-23T15:08:04.000Z,1005.8